sensor_id;sensor_type;location;lat;lon;timestamp;P1;durP1;ratioP1;P2;durP2;ratioP2
4575;SDS011;2300;51.874;8.430;2023-08-31T00:01:04;34.53;;;23.63;;
4575;SDS011;2300;51.874;8.430;2023-08-31T00:03:31;39.03;;;24.33;;
4575;SDS011;2300;51.874;8.430;2023-08-31T00:05:58;36.77;;;24.50;;
4575;SDS011;2300;51.874;8.430;2023-08-31T00:08:27;42.17;;;26.20;;
4575;SDS011;2300;51.874;8.430;2023-08-31T00:10:55;33.37;;;24.17;;
4575;SDS011;2300;51.874;8.430;2023-08-31T00:13:22;39.57;;;24.43;;
4575;SDS011;2300;51.874;8.430;2023-08-31T00:15:49;37.93;;;24.83;;
4575;SDS011;2300;51.874;8.430;2023-08-31T00:18:17;38.43;;;25.17;;
4575;SDS011;2300;51.874;8.430;2023-08-31T00:20:45;37.00;;;24.93;;
4575;SDS011;2300;51.874;8.430;2023-08-31T00:23:12;42.77;;;25.73;;
4575;SDS011;2300;51.874;8.430;2023-08-31T00:25:39;39.70;;;25.13;;
4575;SDS011;2300;51.874;8.430;2023-08-31T00:28:08;36.93;;;24.43;;
4575;SDS011;2300;51.874;8.430;2023-08-31T00:30:35;36.67;;;24.43;;
4575;SDS011;2300;51.874;8.430;2023-08-31T00:33:02;36.67;;;23.70;;
4575;SDS011;2300;51.874;8.430;2023-08-31T00:35:30;37.10;;;23.63;;
4575;SDS011;2300;51.874;8.430;2023-08-31T00:37:59;37.23;;;24.17;;
4575;SDS011;2300;51.874;8.430;2023-08-31T00:40:27;39.17;;;24.60;;
4575;SDS011;2300;51.874;8.430;2023-08-31T00:42:58;34.33;;;24.23;;
4575;SDS011;2300;51.874;8.430;2023-08-31T00:45:25;39.70;;;24.77;;
4575;SDS011;2300;51.874;8.430;2023-08-31T00:47:52;39.57;;;24.83;;
4575;SDS011;2300;51.874;8.430;2023-08-31T00:50:19;40.13;;;25.48;;
4575;SDS011;2300;51.874;8.430;2023-08-31T00:52:47;36.77;;;25.87;;
4575;SDS011;2300;51.874;8.430;2023-08-31T00:55:14;42.87;;;26.50;;
4575;SDS011;2300;51.874;8.430;2023-08-31T00:57:42;36.83;;;25.00;;
4575;SDS011;2300;51.874;8.430;2023-08-31T01:00:10;37.90;;;25.37;;
4575;SDS011;2300;51.874;8.430;2023-08-31T01:02:40;40.40;;;27.87;;
4575;SDS011;2300;51.874;8.430;2023-08-31T01:08:07;47.33;;;28.60;;
4575;SDS011;2300;51.874;8.430;2023-08-31T01:10:46;47.40;;;30.10;;
4575;SDS011;2300;51.874;8.430;2023-08-31T01:13:24;50.47;;;31.53;;
4575;SDS011;2300;51.874;8.430;2023-08-31T01:15:52;48.10;;;30.27;;
4575;SDS011;2300;51.874;8.430;2023-08-31T01:18:21;44.97;;;31.87;;
4575;SDS011;2300;51.874;8.430;2023-08-31T01:20:52;47.73;;;31.67;;
4575;SDS011;2300;51.874;8.430;2023-08-31T01:23:27;53.37;;;32.40;;
4575;SDS011;2300;51.874;8.430;2023-08-31T01:26:01;46.47;;;31.57;;
4575;SDS011;2300;51.874;8.430;2023-08-31T01:28:28;53.30;;;32.40;;
4575;SDS011;2300;51.874;8.430;2023-08-31T01:30:56;49.20;;;30.67;;
4575;SDS011;2300;51.874;8.430;2023-08-31T01:33:23;46.23;;;31.00;;
4575;SDS011;2300;51.874;8.430;2023-08-31T01:35:50;45.43;;;31.70;;
4575;SDS011;2300;51.874;8.430;2023-08-31T01:38:21;43.17;;;30.97;;
4575;SDS011;2300;51.874;8.430;2023-08-31T01:40:54;45.13;;;31.10;;
4575;SDS011;2300;51.874;8.430;2023-08-31T01:43:29;48.83;;;31.67;;
4575;SDS011;2300;51.874;8.430;2023-08-31T01:45:58;49.87;;;30.60;;
4575;SDS011;2300;51.874;8.430;2023-08-31T01:48:25;50.77;;;31.90;;
4575;SDS011;2300;51.874;8.430;2023-08-31T01:50:52;44.97;;;31.37;;
4575;SDS011;2300;51.874;8.430;2023-08-31T01:53:19;48.70;;;31.43;;
4575;SDS011;2300;51.874;8.430;2023-08-31T01:55:45;46.00;;;31.03;;
4575;SDS011;2300;51.874;8.430;2023-08-31T01:58:12;45.90;;;30.87;;
4575;SDS011;2300;51.874;8.430;2023-08-31T02:00:40;48.80;;;31.50;;
4575;SDS011;2300;51.874;8.430;2023-08-31T02:03:07;46.97;;;31.50;;
4575;SDS011;2300;51.874;8.430;2023-08-31T02:05:33;50.50;;;31.40;;
4575;SDS011;2300;51.874;8.430;2023-08-31T02:08:00;47.67;;;31.30;;
4575;SDS011;2300;51.874;8.430;2023-08-31T02:10:26;49.13;;;31.33;;
4575;SDS011;2300;51.874;8.430;2023-08-31T02:12:54;46.63;;;31.57;;
4575;SDS011;2300;51.874;8.430;2023-08-31T02:15:21;51.97;;;31.40;;
4575;SDS011;2300;51.874;8.430;2023-08-31T02:17:49;48.40;;;31.77;;
4575;SDS011;2300;51.874;8.430;2023-08-31T02:20:15;45.27;;;29.67;;
4575;SDS011;2300;51.874;8.430;2023-08-31T02:22:42;48.23;;;30.50;;
4575;SDS011;2300;51.874;8.430;2023-08-31T02:25:09;47.40;;;30.50;;
4575;SDS011;2300;51.874;8.430;2023-08-31T02:27:35;47.37;;;30.00;;
4575;SDS011;2300;51.874;8.430;2023-08-31T02:30:02;48.43;;;30.33;;
4575;SDS011;2300;51.874;8.430;2023-08-31T02:32:29;48.23;;;31.07;;
4575;SDS011;2300;51.874;8.430;2023-08-31T02:34:58;45.10;;;30.50;;
4575;SDS011;2300;51.874;8.430;2023-08-31T02:37:24;44.40;;;29.47;;
4575;SDS011;2300;51.874;8.430;2023-08-31T02:39:51;51.17;;;30.63;;
4575;SDS011;2300;51.874;8.430;2023-08-31T02:42:17;49.10;;;29.30;;
4575;SDS011;2300;51.874;8.430;2023-08-31T02:44:44;44.70;;;30.00;;
4575;SDS011;2300;51.874;8.430;2023-08-31T02:47:10;45.47;;;29.87;;
4575;SDS011;2300;51.874;8.430;2023-08-31T02:49:37;44.47;;;28.63;;
4575;SDS011;2300;51.874;8.430;2023-08-31T02:52:06;46.33;;;29.33;;
4575;SDS011;2300;51.874;8.430;2023-08-31T02:54:32;40.65;;;28.08;;
4575;SDS011;2300;51.874;8.430;2023-08-31T02:56:59;41.50;;;27.97;;
4575;SDS011;2300;51.874;8.430;2023-08-31T02:59:25;42.20;;;27.10;;
4575;SDS011;2300;51.874;8.430;2023-08-31T03:01:52;40.63;;;24.93;;
4575;SDS011;2300;51.874;8.430;2023-08-31T03:04:19;37.00;;;24.80;;
4575;SDS011;2300;51.874;8.430;2023-08-31T03:06:46;36.87;;;24.47;;
4575;SDS011;2300;51.874;8.430;2023-08-31T03:09:14;37.00;;;24.80;;
4575;SDS011;2300;51.874;8.430;2023-08-31T03:11:41;37.60;;;23.47;;
4575;SDS011;2300;51.874;8.430;2023-08-31T03:14:07;38.27;;;24.80;;
4575;SDS011;2300;51.874;8.430;2023-08-31T03:16:35;42.77;;;25.80;;
4575;SDS011;2300;51.874;8.430;2023-08-31T03:19:01;37.90;;;25.50;;
4575;SDS011;2300;51.874;8.430;2023-08-31T03:21:28;39.30;;;25.40;;
4575;SDS011;2300;51.874;8.430;2023-08-31T03:23:54;40.60;;;24.17;;
4575;SDS011;2300;51.874;8.430;2023-08-31T03:26:22;37.67;;;24.23;;
4575;SDS011;2300;51.874;8.430;2023-08-31T03:28:49;37.20;;;25.30;;
4575;SDS011;2300;51.874;8.430;2023-08-31T03:31:15;39.10;;;24.40;;
4575;SDS011;2300;51.874;8.430;2023-08-31T03:33:42;40.13;;;23.77;;
4575;SDS011;2300;51.874;8.430;2023-08-31T03:36:08;38.27;;;24.27;;
4575;SDS011;2300;51.874;8.430;2023-08-31T03:38:35;38.50;;;25.17;;
4575;SDS011;2300;51.874;8.430;2023-08-31T03:41:03;39.43;;;24.90;;
4575;SDS011;2300;51.874;8.430;2023-08-31T03:43:31;36.97;;;24.07;;
4575;SDS011;2300;51.874;8.430;2023-08-31T03:45:58;35.90;;;24.33;;
4575;SDS011;2300;51.874;8.430;2023-08-31T03:48:25;38.07;;;23.63;;
4575;SDS011;2300;51.874;8.430;2023-08-31T03:50:52;37.23;;;23.17;;
4575;SDS011;2300;51.874;8.430;2023-08-31T03:53:19;35.87;;;22.67;;
4575;SDS011;2300;51.874;8.430;2023-08-31T03:55:46;34.67;;;22.37;;
4575;SDS011;2300;51.874;8.430;2023-08-31T03:58:13;39.17;;;22.57;;
4575;SDS011;2300;51.874;8.430;2023-08-31T04:00:41;35.43;;;23.80;;
4575;SDS011;2300;51.874;8.430;2023-08-31T04:03:08;34.47;;;22.33;;
4575;SDS011;2300;51.874;8.430;2023-08-31T04:05:35;39.07;;;23.70;;
4575;SDS011;2300;51.874;8.430;2023-08-31T04:08:02;38.30;;;22.77;;
4575;SDS011;2300;51.874;8.430;2023-08-31T04:10:29;38.27;;;23.00;;
4575;SDS011;2300;51.874;8.430;2023-08-31T04:12:57;35.70;;;22.53;;
4575;SDS011;2300;51.874;8.430;2023-08-31T04:15:23;33.07;;;23.57;;
4575;SDS011;2300;51.874;8.430;2023-08-31T04:17:51;34.17;;;22.73;;
4575;SDS011;2300;51.874;8.430;2023-08-31T04:20:18;35.07;;;23.53;;
4575;SDS011;2300;51.874;8.430;2023-08-31T04:22:45;37.23;;;22.23;;
4575;SDS011;2300;51.874;8.430;2023-08-31T04:25:11;34.03;;;22.67;;
4575;SDS011;2300;51.874;8.430;2023-08-31T04:27:38;38.10;;;22.83;;
4575;SDS011;2300;51.874;8.430;2023-08-31T04:30:05;35.00;;;23.87;;
4575;SDS011;2300;51.874;8.430;2023-08-31T04:32:33;40.20;;;22.97;;
4575;SDS011;2300;51.874;8.430;2023-08-31T04:35:02;37.53;;;22.50;;
4575;SDS011;2300;51.874;8.430;2023-08-31T04:37:30;35.83;;;23.23;;
4575;SDS011;2300;51.874;8.430;2023-08-31T04:39:56;35.60;;;23.50;;
4575;SDS011;2300;51.874;8.430;2023-08-31T04:42:23;36.07;;;23.33;;
4575;SDS011;2300;51.874;8.430;2023-08-31T04:44:50;35.20;;;23.50;;
4575;SDS011;2300;51.874;8.430;2023-08-31T04:47:16;33.87;;;21.87;;
4575;SDS011;2300;51.874;8.430;2023-08-31T04:49:43;30.13;;;21.60;;
4575;SDS011;2300;51.874;8.430;2023-08-31T04:52:11;33.70;;;22.57;;
4575;SDS011;2300;51.874;8.430;2023-08-31T04:54:37;37.40;;;23.27;;
4575;SDS011;2300;51.874;8.430;2023-08-31T04:57:04;32.37;;;22.37;;
4575;SDS011;2300;51.874;8.430;2023-08-31T04:59:32;36.27;;;22.07;;
4575;SDS011;2300;51.874;8.430;2023-08-31T05:01:59;32.03;;;21.90;;
4575;SDS011;2300;51.874;8.430;2023-08-31T05:04:25;32.50;;;22.50;;
4575;SDS011;2300;51.874;8.430;2023-08-31T05:06:53;38.53;;;23.03;;
4575;SDS011;2300;51.874;8.430;2023-08-31T05:09:21;34.80;;;23.00;;
4575;SDS011;2300;51.874;8.430;2023-08-31T05:11:50;32.87;;;22.77;;
4575;SDS011;2300;51.874;8.430;2023-08-31T05:14:16;39.33;;;24.43;;
4575;SDS011;2300;51.874;8.430;2023-08-31T05:16:43;37.87;;;24.00;;
4575;SDS011;2300;51.874;8.430;2023-08-31T05:19:09;36.27;;;22.90;;
4575;SDS011;2300;51.874;8.430;2023-08-31T05:21:36;35.00;;;24.10;;
4575;SDS011;2300;51.874;8.430;2023-08-31T05:24:03;32.90;;;22.50;;
4575;SDS011;2300;51.874;8.430;2023-08-31T05:26:32;35.17;;;24.37;;
4575;SDS011;2300;51.874;8.430;2023-08-31T05:28:58;36.70;;;22.90;;
4575;SDS011;2300;51.874;8.430;2023-08-31T05:31:25;31.23;;;20.60;;
4575;SDS011;2300;51.874;8.430;2023-08-31T05:33:52;28.93;;;19.83;;
4575;SDS011;2300;51.874;8.430;2023-08-31T05:36:18;27.50;;;17.83;;
4575;SDS011;2300;51.874;8.430;2023-08-31T05:38:45;25.30;;;17.00;;
4575;SDS011;2300;51.874;8.430;2023-08-31T05:41:11;23.42;;;14.27;;
4575;SDS011;2300;51.874;8.430;2023-08-31T05:43:39;20.02;;;13.23;;
4575;SDS011;2300;51.874;8.430;2023-08-31T05:46:06;21.13;;;13.70;;
4575;SDS011;2300;51.874;8.430;2023-08-31T05:48:33;23.63;;;14.83;;
4575;SDS011;2300;51.874;8.430;2023-08-31T05:51:00;18.23;;;14.43;;
4575;SDS011;2300;51.874;8.430;2023-08-31T05:53:28;19.35;;;13.32;;
4575;SDS011;2300;51.874;8.430;2023-08-31T05:55:55;20.08;;;13.27;;
4575;SDS011;2300;51.874;8.430;2023-08-31T05:58:28;21.30;;;12.70;;
4575;SDS011;2300;51.874;8.430;2023-08-31T06:00:57;17.95;;;12.98;;
4575;SDS011;2300;51.874;8.430;2023-08-31T06:03:24;18.30;;;13.45;;
4575;SDS011;2300;51.874;8.430;2023-08-31T06:05:51;20.35;;;14.30;;
4575;SDS011;2300;51.874;8.430;2023-08-31T06:08:18;22.45;;;14.73;;
4575;SDS011;2300;51.874;8.430;2023-08-31T06:10:44;19.17;;;15.10;;
4575;SDS011;2300;51.874;8.430;2023-08-31T06:13:11;20.88;;;15.10;;
4575;SDS011;2300;51.874;8.430;2023-08-31T06:15:38;19.15;;;14.80;;
4575;SDS011;2300;51.874;8.430;2023-08-31T06:18:06;24.27;;;15.85;;
4575;SDS011;2300;51.874;8.430;2023-08-31T06:20:33;22.25;;;16.73;;
4575;SDS011;2300;51.874;8.430;2023-08-31T06:22:59;25.15;;;16.15;;
4575;SDS011;2300;51.874;8.430;2023-08-31T06:25:26;21.73;;;16.50;;
4575;SDS011;2300;51.874;8.430;2023-08-31T06:27:53;25.20;;;17.50;;
4575;SDS011;2300;51.874;8.430;2023-08-31T06:30:19;23.20;;;17.43;;
4575;SDS011;2300;51.874;8.430;2023-08-31T06:32:46;22.00;;;17.37;;
4575;SDS011;2300;51.874;8.430;2023-08-31T06:35:16;21.03;;;16.70;;
4575;SDS011;2300;51.874;8.430;2023-08-31T06:37:44;21.23;;;17.27;;
4575;SDS011;2300;51.874;8.430;2023-08-31T06:40:11;21.83;;;15.80;;
4575;SDS011;2300;51.874;8.430;2023-08-31T06:42:38;19.40;;;15.52;;
4575;SDS011;2300;51.874;8.430;2023-08-31T06:45:06;20.70;;;15.27;;
4575;SDS011;2300;51.874;8.430;2023-08-31T06:47:34;19.40;;;15.07;;
4575;SDS011;2300;51.874;8.430;2023-08-31T06:50:00;22.67;;;15.50;;
4575;SDS011;2300;51.874;8.430;2023-08-31T06:52:29;19.47;;;15.57;;
4575;SDS011;2300;51.874;8.430;2023-08-31T06:54:56;18.53;;;15.33;;
4575;SDS011;2300;51.874;8.430;2023-08-31T06:57:23;18.67;;;15.37;;
4575;SDS011;2300;51.874;8.430;2023-08-31T06:59:50;18.30;;;14.70;;
4575;SDS011;2300;51.874;8.430;2023-08-31T07:02:16;18.80;;;14.68;;
4575;SDS011;2300;51.874;8.430;2023-08-31T07:04:44;16.33;;;14.30;;
4575;SDS011;2300;51.874;8.430;2023-08-31T07:07:11;15.98;;;12.93;;
4575;SDS011;2300;51.874;8.430;2023-08-31T07:09:40;13.15;;;11.68;;
4575;SDS011;2300;51.874;8.430;2023-08-31T07:12:07;14.23;;;11.32;;
4575;SDS011;2300;51.874;8.430;2023-08-31T07:14:34;13.40;;;10.90;;
4575;SDS011;2300;51.874;8.430;2023-08-31T07:17:01;12.68;;;9.80;;
4575;SDS011;2300;51.874;8.430;2023-08-31T07:19:28;16.38;;;10.68;;
4575;SDS011;2300;51.874;8.430;2023-08-31T07:21:54;12.82;;;10.50;;
4575;SDS011;2300;51.874;8.430;2023-08-31T07:24:21;13.43;;;10.70;;
4575;SDS011;2300;51.874;8.430;2023-08-31T07:26:50;12.50;;;10.52;;
4575;SDS011;2300;51.874;8.430;2023-08-31T07:29:16;13.80;;;10.40;;
4575;SDS011;2300;51.874;8.430;2023-08-31T07:31:43;13.27;;;10.43;;
4575;SDS011;2300;51.874;8.430;2023-08-31T07:34:10;16.70;;;11.60;;
4575;SDS011;2300;51.874;8.430;2023-08-31T07:36:36;15.18;;;12.10;;
4575;SDS011;2300;51.874;8.430;2023-08-31T07:39:03;15.40;;;12.25;;
4575;SDS011;2300;51.874;8.430;2023-08-31T07:41:30;16.13;;;12.75;;
4575;SDS011;2300;51.874;8.430;2023-08-31T07:43:58;15.93;;;12.50;;
4575;SDS011;2300;51.874;8.430;2023-08-31T07:46:24;16.45;;;12.68;;
4575;SDS011;2300;51.874;8.430;2023-08-31T07:48:51;17.90;;;13.50;;
4575;SDS011;2300;51.874;8.430;2023-08-31T07:51:17;15.52;;;13.23;;
4575;SDS011;2300;51.874;8.430;2023-08-31T07:53:48;13.38;;;11.98;;
4575;SDS011;2300;51.874;8.430;2023-08-31T07:56:14;15.55;;;13.13;;
4575;SDS011;2300;51.874;8.430;2023-08-31T07:58:41;19.90;;;14.13;;
4575;SDS011;2300;51.874;8.430;2023-08-31T08:01:09;15.73;;;13.32;;
4575;SDS011;2300;51.874;8.430;2023-08-31T08:03:35;14.75;;;13.10;;
4575;SDS011;2300;51.874;8.430;2023-08-31T08:06:02;15.68;;;13.60;;
4575;SDS011;2300;51.874;8.430;2023-08-31T08:08:29;15.00;;;13.20;;
4575;SDS011;2300;51.874;8.430;2023-08-31T08:10:56;17.60;;;13.73;;
4575;SDS011;2300;51.874;8.430;2023-08-31T08:13:22;15.07;;;12.90;;
4575;SDS011;2300;51.874;8.430;2023-08-31T08:15:49;14.70;;;12.68;;
4575;SDS011;2300;51.874;8.430;2023-08-31T08:18:17;13.07;;;11.35;;
4575;SDS011;2300;51.874;8.430;2023-08-31T08:20:46;13.02;;;11.63;;
4575;SDS011;2300;51.874;8.430;2023-08-31T08:23:13;17.23;;;11.20;;
4575;SDS011;2300;51.874;8.430;2023-08-31T08:25:40;12.63;;;11.05;;
4575;SDS011;2300;51.874;8.430;2023-08-31T08:28:06;16.10;;;11.95;;
4575;SDS011;2300;51.874;8.430;2023-08-31T08:30:33;19.17;;;11.95;;
4575;SDS011;2300;51.874;8.430;2023-08-31T08:33:00;16.05;;;12.35;;
4575;SDS011;2300;51.874;8.430;2023-08-31T08:35:28;14.25;;;11.68;;
4575;SDS011;2300;51.874;8.430;2023-08-31T08:37:54;16.70;;;12.13;;
4575;SDS011;2300;51.874;8.430;2023-08-31T08:40:21;15.55;;;11.52;;
4575;SDS011;2300;51.874;8.430;2023-08-31T08:42:48;15.35;;;11.68;;
4575;SDS011;2300;51.874;8.430;2023-08-31T08:45:17;16.05;;;12.20;;
4575;SDS011;2300;51.874;8.430;2023-08-31T08:47:46;14.85;;;11.80;;
4575;SDS011;2300;51.874;8.430;2023-08-31T08:50:13;13.80;;;11.77;;
4575;SDS011;2300;51.874;8.430;2023-08-31T08:52:41;12.95;;;10.82;;
4575;SDS011;2300;51.874;8.430;2023-08-31T08:55:09;14.43;;;11.35;;
4575;SDS011;2300;51.874;8.430;2023-08-31T08:57:36;14.95;;;10.40;;
4575;SDS011;2300;51.874;8.430;2023-08-31T09:00:04;14.75;;;10.82;;
4575;SDS011;2300;51.874;8.430;2023-08-31T09:02:31;16.92;;;12.02;;
4575;SDS011;2300;51.874;8.430;2023-08-31T09:04:58;13.73;;;11.10;;
4575;SDS011;2300;51.874;8.430;2023-08-31T09:07:24;16.60;;;11.52;;
4575;SDS011;2300;51.874;8.430;2023-08-31T09:09:53;16.35;;;13.00;;
4575;SDS011;2300;51.874;8.430;2023-08-31T09:12:21;13.75;;;11.60;;
4575;SDS011;2300;51.874;8.430;2023-08-31T09:14:58;15.75;;;11.45;;
4575;SDS011;2300;51.874;8.430;2023-08-31T09:17:26;18.20;;;11.77;;
4575;SDS011;2300;51.874;8.430;2023-08-31T09:19:59;11.38;;;10.05;;
4575;SDS011;2300;51.874;8.430;2023-08-31T09:22:28;10.18;;;8.70;;
4575;SDS011;2300;51.874;8.430;2023-08-31T09:24:56;10.77;;;7.35;;
4575;SDS011;2300;51.874;8.430;2023-08-31T09:27:23;11.85;;;6.35;;
4575;SDS011;2300;51.874;8.430;2023-08-31T09:29:50;12.80;;;6.57;;
4575;SDS011;2300;51.874;8.430;2023-08-31T09:32:17;7.65;;;5.53;;
4575;SDS011;2300;51.874;8.430;2023-08-31T09:34:44;7.97;;;5.85;;
4575;SDS011;2300;51.874;8.430;2023-08-31T09:37:11;9.15;;;5.38;;
4575;SDS011;2300;51.874;8.430;2023-08-31T09:39:38;7.65;;;4.82;;
4575;SDS011;2300;51.874;8.430;2023-08-31T09:42:07;9.05;;;5.60;;
4575;SDS011;2300;51.874;8.430;2023-08-31T09:44:34;6.53;;;4.47;;
4575;SDS011;2300;51.874;8.430;2023-08-31T09:47:07;7.80;;;4.85;;
4575;SDS011;2300;51.874;8.430;2023-08-31T09:49:34;8.90;;;5.45;;
4575;SDS011;2300;51.874;8.430;2023-08-31T09:52:03;9.15;;;5.38;;
4575;SDS011;2300;51.874;8.430;2023-08-31T09:54:31;7.93;;;5.45;;
4575;SDS011;2300;51.874;8.430;2023-08-31T09:57:01;11.43;;;5.43;;
4575;SDS011;2300;51.874;8.430;2023-08-31T09:59:30;7.85;;;5.50;;
4575;SDS011;2300;51.874;8.430;2023-08-31T10:01:59;8.57;;;4.63;;
4575;SDS011;2300;51.874;8.430;2023-08-31T10:04:26;9.48;;;4.75;;
4575;SDS011;2300;51.874;8.430;2023-08-31T10:06:55;8.65;;;4.07;;
4575;SDS011;2300;51.874;8.430;2023-08-31T10:09:22;9.75;;;4.40;;
4575;SDS011;2300;51.874;8.430;2023-08-31T10:11:49;8.52;;;4.00;;
4575;SDS011;2300;51.874;8.430;2023-08-31T10:14:17;5.50;;;3.35;;
4575;SDS011;2300;51.874;8.430;2023-08-31T10:16:47;8.80;;;3.50;;
4575;SDS011;2300;51.874;8.430;2023-08-31T10:19:17;6.03;;;3.78;;
4575;SDS011;2300;51.874;8.430;2023-08-31T10:21:44;6.65;;;2.92;;
4575;SDS011;2300;51.874;8.430;2023-08-31T10:24:10;6.03;;;3.53;;
4575;SDS011;2300;51.874;8.430;2023-08-31T10:26:37;6.40;;;3.10;;
4575;SDS011;2300;51.874;8.430;2023-08-31T10:29:04;6.15;;;3.03;;
4575;SDS011;2300;51.874;8.430;2023-08-31T10:31:31;4.78;;;2.70;;
4575;SDS011;2300;51.874;8.430;2023-08-31T10:34:01;8.15;;;3.40;;
4575;SDS011;2300;51.874;8.430;2023-08-31T10:36:38;12.95;;;3.88;;
4575;SDS011;2300;51.874;8.430;2023-08-31T10:39:06;7.55;;;2.88;;
4575;SDS011;2300;51.874;8.430;2023-08-31T10:41:37;5.82;;;2.70;;
4575;SDS011;2300;51.874;8.430;2023-08-31T10:44:17;7.70;;;2.55;;
4575;SDS011;2300;51.874;8.430;2023-08-31T10:46:45;9.13;;;2.60;;
4575;SDS011;2300;51.874;8.430;2023-08-31T10:49:19;5.32;;;2.10;;
4575;SDS011;2300;51.874;8.430;2023-08-31T10:51:48;5.63;;;1.88;;
4575;SDS011;2300;51.874;8.430;2023-08-31T10:54:19;4.55;;;1.80;;
4575;SDS011;2300;51.874;8.430;2023-08-31T10:59:45;3.22;;;1.52;;
4575;SDS011;2300;51.874;8.430;2023-08-31T11:02:29;6.70;;;1.60;;
4575;SDS011;2300;51.874;8.430;2023-08-31T11:05:01;3.85;;;1.70;;
4575;SDS011;2300;51.874;8.430;2023-08-31T11:07:32;5.03;;;1.83;;
4575;SDS011;2300;51.874;8.430;2023-08-31T11:10:13;4.40;;;1.30;;
4575;SDS011;2300;51.874;8.430;2023-08-31T11:12:42;5.00;;;1.40;;
4575;SDS011;2300;51.874;8.430;2023-08-31T11:15:13;4.47;;;1.50;;
4575;SDS011;2300;51.874;8.430;2023-08-31T11:17:41;3.78;;;1.30;;
4575;SDS011;2300;51.874;8.430;2023-08-31T11:20:12;5.88;;;1.58;;
4575;SDS011;2300;51.874;8.430;2023-08-31T11:22:41;2.63;;;0.90;;
4575;SDS011;2300;51.874;8.430;2023-08-31T11:25:10;4.22;;;1.20;;
4575;SDS011;2300;51.874;8.430;2023-08-31T11:27:38;3.08;;;1.10;;
4575;SDS011;2300;51.874;8.430;2023-08-31T11:30:10;2.05;;;0.80;;
4575;SDS011;2300;51.874;8.430;2023-08-31T11:32:43;4.20;;;1.10;;
4575;SDS011;2300;51.874;8.430;2023-08-31T11:35:11;3.60;;;1.00;;
4575;SDS011;2300;51.874;8.430;2023-08-31T11:37:38;3.17;;;0.90;;
4575;SDS011;2300;51.874;8.430;2023-08-31T11:40:05;2.65;;;0.85;;
4575;SDS011;2300;51.874;8.430;2023-08-31T11:42:33;2.80;;;1.00;;
4575;SDS011;2300;51.874;8.430;2023-08-31T11:45:00;2.80;;;1.00;;
4575;SDS011;2300;51.874;8.430;2023-08-31T11:47:30;3.42;;;0.98;;
4575;SDS011;2300;51.874;8.430;2023-08-31T11:49:57;7.35;;;1.13;;
4575;SDS011;2300;51.874;8.430;2023-08-31T11:52:26;4.63;;;0.90;;
4575;SDS011;2300;51.874;8.430;2023-08-31T11:54:53;2.88;;;0.80;;
4575;SDS011;2300;51.874;8.430;2023-08-31T11:57:20;2.88;;;1.00;;
4575;SDS011;2300;51.874;8.430;2023-08-31T11:59:51;4.03;;;0.93;;
4575;SDS011;2300;51.874;8.430;2023-08-31T12:02:18;2.42;;;1.00;;
4575;SDS011;2300;51.874;8.430;2023-08-31T12:04:45;3.40;;;0.85;;
4575;SDS011;2300;51.874;8.430;2023-08-31T12:07:15;2.85;;;1.08;;
4575;SDS011;2300;51.874;8.430;2023-08-31T12:09:44;6.55;;;1.50;;
4575;SDS011;2300;51.874;8.430;2023-08-31T12:12:13;6.82;;;1.52;;
4575;SDS011;2300;51.874;8.430;2023-08-31T12:14:40;5.03;;;1.20;;
4575;SDS011;2300;51.874;8.430;2023-08-31T12:17:07;7.32;;;1.27;;
4575;SDS011;2300;51.874;8.430;2023-08-31T12:19:36;2.05;;;1.00;;
4575;SDS011;2300;51.874;8.430;2023-08-31T12:22:04;5.22;;;1.38;;
4575;SDS011;2300;51.874;8.430;2023-08-31T12:24:36;5.97;;;1.23;;
4575;SDS011;2300;51.874;8.430;2023-08-31T12:27:05;4.78;;;1.20;;
4575;SDS011;2300;51.874;8.430;2023-08-31T12:29:31;6.07;;;1.10;;
4575;SDS011;2300;51.874;8.430;2023-08-31T12:31:58;2.72;;;1.13;;
4575;SDS011;2300;51.874;8.430;2023-08-31T12:34:25;4.65;;;1.33;;
4575;SDS011;2300;51.874;8.430;2023-08-31T12:36:52;3.45;;;1.00;;
4575;SDS011;2300;51.874;8.430;2023-08-31T12:39:18;3.50;;;1.20;;
4575;SDS011;2300;51.874;8.430;2023-08-31T12:41:45;4.10;;;1.10;;
4575;SDS011;2300;51.874;8.430;2023-08-31T12:44:13;5.25;;;1.10;;
4575;SDS011;2300;51.874;8.430;2023-08-31T12:46:40;4.72;;;1.30;;
4575;SDS011;2300;51.874;8.430;2023-08-31T12:49:06;5.03;;;1.70;;
4575;SDS011;2300;51.874;8.430;2023-08-31T12:51:33;3.60;;;1.40;;
4575;SDS011;2300;51.874;8.430;2023-08-31T12:53:59;3.85;;;1.40;;
4575;SDS011;2300;51.874;8.430;2023-08-31T12:56:26;6.70;;;1.50;;
4575;SDS011;2300;51.874;8.430;2023-08-31T12:58:52;4.30;;;1.40;;
4575;SDS011;2300;51.874;8.430;2023-08-31T13:01:21;5.22;;;1.25;;
4575;SDS011;2300;51.874;8.430;2023-08-31T13:03:48;5.13;;;1.70;;
4575;SDS011;2300;51.874;8.430;2023-08-31T13:06:15;4.47;;;1.20;;
4575;SDS011;2300;51.874;8.430;2023-08-31T13:08:42;3.45;;;1.30;;
4575;SDS011;2300;51.874;8.430;2023-08-31T13:11:09;2.40;;;1.25;;
4575;SDS011;2300;51.874;8.430;2023-08-31T13:13:36;4.47;;;1.50;;
4575;SDS011;2300;51.874;8.430;2023-08-31T13:16:02;2.80;;;1.27;;
4575;SDS011;2300;51.874;8.430;2023-08-31T13:18:31;3.97;;;1.10;;
4575;SDS011;2300;51.874;8.430;2023-08-31T13:20:57;4.75;;;1.67;;
4575;SDS011;2300;51.874;8.430;2023-08-31T13:23:24;5.93;;;1.80;;
4575;SDS011;2300;51.874;8.430;2023-08-31T13:25:50;5.00;;;1.65;;
4575;SDS011;2300;51.874;8.430;2023-08-31T13:28:17;4.97;;;1.90;;
4575;SDS011;2300;51.874;8.430;2023-08-31T13:30:44;4.22;;;1.63;;
4575;SDS011;2300;51.874;8.430;2023-08-31T13:33:11;4.45;;;1.50;;
4575;SDS011;2300;51.874;8.430;2023-08-31T13:35:39;4.32;;;1.60;;
4575;SDS011;2300;51.874;8.430;2023-08-31T13:38:05;5.28;;;1.70;;
4575;SDS011;2300;51.874;8.430;2023-08-31T13:40:33;3.85;;;1.50;;
4575;SDS011;2300;51.874;8.430;2023-08-31T13:43:01;4.00;;;1.80;;
4575;SDS011;2300;51.874;8.430;2023-08-31T13:45:28;5.00;;;1.90;;
4575;SDS011;2300;51.874;8.430;2023-08-31T13:47:55;4.90;;;1.88;;
4575;SDS011;2300;51.874;8.430;2023-08-31T13:50:22;4.88;;;1.60;;
4575;SDS011;2300;51.874;8.430;2023-08-31T13:52:51;4.20;;;1.00;;
4575;SDS011;2300;51.874;8.430;2023-08-31T13:55:18;3.47;;;1.00;;
4575;SDS011;2300;51.874;8.430;2023-08-31T13:57:44;4.15;;;0.70;;
4575;SDS011;2300;51.874;8.430;2023-08-31T14:00:11;2.90;;;0.80;;
4575;SDS011;2300;51.874;8.430;2023-08-31T14:02:39;1.85;;;0.93;;
4575;SDS011;2300;51.874;8.430;2023-08-31T14:05:06;4.20;;;1.20;;
4575;SDS011;2300;51.874;8.430;2023-08-31T14:07:34;3.85;;;1.10;;
4575;SDS011;2300;51.874;8.430;2023-08-31T14:10:02;4.45;;;1.40;;
4575;SDS011;2300;51.874;8.430;2023-08-31T14:12:30;2.15;;;1.30;;
4575;SDS011;2300;51.874;8.430;2023-08-31T14:14:57;4.00;;;1.50;;
4575;SDS011;2300;51.874;8.430;2023-08-31T14:17:24;2.55;;;1.25;;
4575;SDS011;2300;51.874;8.430;2023-08-31T14:19:50;4.88;;;1.50;;
4575;SDS011;2300;51.874;8.430;2023-08-31T14:22:17;3.38;;;1.73;;
4575;SDS011;2300;51.874;8.430;2023-08-31T14:24:43;3.08;;;1.40;;
4575;SDS011;2300;51.874;8.430;2023-08-31T14:27:11;2.20;;;1.30;;
4575;SDS011;2300;51.874;8.430;2023-08-31T14:29:38;2.92;;;1.48;;
4575;SDS011;2300;51.874;8.430;2023-08-31T14:32:04;3.65;;;1.20;;
4575;SDS011;2300;51.874;8.430;2023-08-31T14:34:31;4.32;;;1.75;;
4575;SDS011;2300;51.874;8.430;2023-08-31T14:36:57;2.40;;;1.33;;
4575;SDS011;2300;51.874;8.430;2023-08-31T14:39:26;3.28;;;1.52;;
4575;SDS011;2300;51.874;8.430;2023-08-31T14:41:54;2.45;;;1.30;;
4575;SDS011;2300;51.874;8.430;2023-08-31T14:44:23;3.50;;;1.40;;
4575;SDS011;2300;51.874;8.430;2023-08-31T14:46:49;3.15;;;1.27;;
4575;SDS011;2300;51.874;8.430;2023-08-31T14:49:16;2.70;;;1.10;;
4575;SDS011;2300;51.874;8.430;2023-08-31T14:51:43;2.50;;;1.20;;
4575;SDS011;2300;51.874;8.430;2023-08-31T14:54:09;1.90;;;1.02;;
4575;SDS011;2300;51.874;8.430;2023-08-31T14:56:36;2.10;;;1.10;;
4575;SDS011;2300;51.874;8.430;2023-08-31T14:59:02;3.10;;;1.92;;
4575;SDS011;2300;51.874;8.430;2023-08-31T15:01:30;3.33;;;2.05;;
4575;SDS011;2300;51.874;8.430;2023-08-31T15:03:57;5.78;;;1.80;;
4575;SDS011;2300;51.874;8.430;2023-08-31T15:06:23;4.20;;;1.75;;